Time;durP1;ratioP1;P1;durP2;ratioP2;P2;SDS_P1;SDS_P2;PMS_P1;PMS_P2;Temp;Humidity;BMP_temperature;BMP_pressure;BME280_temperature;BME280_humidity;BME280_pressure;Samples;Min_cycle;Max_cycle;Signal;HPM_P1;HPM_P2
2021/10/15 11:07:52;;;;;;;2.95;1.10;;;20.50;61.40;;;;;;5030399;28;87040;-69
2021/10/15 11:10:22;;;;;;;1.30;1.00;;;20.80;61.70;;;;;;4996288;28;87466;-66
2021/10/15 11:12:55;;;;;;;4.25;1.20;;;21.00;61.00;;;;;;5003087;27;87323;-66
2021/10/15 11:15:20;;;;;;;2.20;1.45;;;20.90;60.90;;;;;;4985627;27;89592;-67
2021/10/15 11:17:47;;;;;;;1.48;0.90;;;;;;;;;;4999663;28;86960;-68
2021/10/15 11:20:19;;;;;;;3.10;1.20;;;21.30;59.10;;;;;;4994189;28;87753;-74
2021/10/15 11:22:55;;;;;;;3.08;1.17;;;21.30;60.00;;;;;;4982087;28;87931;-72
2021/10/15 11:25:22;;;;;;;3.88;1.70;;;21.20;60.00;;;;;;4978669;28;88526;-72
2021/10/15 11:27:52;;;;;;;3.00;1.05;;;21.10;59.80;;;;;;4981444;28;86750;-72
2021/10/15 11:30:17;;;;;;;3.40;1.10;;;21.10;59.70;;;;;;4982765;28;87435;-71
2021/10/15 11:32:47;;;;;;;4.85;1.33;;;21.10;59.80;;;;;;4994352;28;87625;-72
2021/10/15 11:35:20;;;;;;;4.80;1.00;;;21.20;60.00;;;;;;4994278;28;87284;-71
2021/10/15 11:37:51;;;;;;;4.68;1.50;;;21.40;59.60;;;;;;4996320;28;87996;-73
2021/10/15 11:40:20;;;;;;;3.30;1.40;;;21.60;59.30;;;;;;4993968;28;87089;-75
2021/10/15 11:42:45;;;;;;;3.05;1.35;;;21.70;59.10;;;;;;4993073;28;86884;-73
2021/10/15 11:45:31;;;;;;;2.65;0.88;;;21.80;58.60;;;;;;4993490;28;87540;-72
2021/10/15 11:48:00;;;;;;;2.88;1.42;;;21.90;58.40;;;;;;4985800;27;87640;-70
2021/10/15 11:52:19;;;;;;;3.45;1.23;;;22.00;58.20;;;;;;5000543;28;87649;-70
2021/10/15 11:54:46;;;;;;;3.65;1.00;;;22.00;58.10;;;;;;4964268;27;87862;-71
2021/10/15 11:57:24;;;;;;;3.10;1.60;;;22.10;57.90;;;;;;4966717;22;89605;-72
2021/10/15 11:59:51;;;;;;;2.05;0.90;;;22.10;57.80;;;;;;4916500;28;87719;-73
2021/10/15 12:02:18;;;;;;;2.83;1.00;;;22.10;58.20;;;;;;4911583;28;87706;-70
2021/10/15 12:09:25;;;;;;;2.95;1.00;;;22.30;57.60;;;;;;5059714;27;136565;-40
2021/10/15 12:12:04;;;;;;;5.47;1.33;;;22.20;57.00;;;;;;5014895;27;88465;-48
2021/10/15 12:15:54;;;;;;;3.80;1.20;;;22.30;56.90;;;;;;5113878;27;87244;-48
2021/10/15 12:20:29;;;;;;;3.67;1.13;;;22.40;56.90;;;;;;5056790;27;87543;-46
2021/10/15 12:23:05;;;;;;;4.07;1.58;;;22.50;56.20;;;;;;5014686;27;89032;-45
2021/10/15 12:25:32;;;;;;;2.92;1.00;;;23.40;54.90;;;;;;5019168;27;142643;-40
2021/10/15 12:28:10;;;;;;;3.05;0.88;;;22.80;55.20;;;;;;5008370;28;88193;-44
2021/10/15 12:30:37;;;;;;;2.47;0.82;;;24.10;52.50;;;;;;4989617;28;156982;-47
2021/10/15 12:33:59;;;;;;;2.75;1.10;;;23.50;53.70;;;;;;5100755;27;88276;-43
2021/10/15 12:36:27;;;;;;;5.25;1.83;;;23.00;55.10;;;;;;5046985;27;158539;-45
2021/10/15 12:39:24;;;;;;;5.65;1.23;;;22.90;55.00;;;;;;5082378;27;87960;-45
2021/10/15 12:41:53;;;;;;;1.98;1.50;;;22.80;55.00;;;;;;5032659;27;87697;-41
2021/10/15 12:44:21;;;;;;;5.18;1.10;;;22.70;55.20;;;;;;5020441;27;97254;-42
2021/10/15 12:48:18;;;;;;;5.22;1.27;;;22.50;55.30;;;;;;5043790;27;1383084;-44
2021/10/15 12:50:59;;;;;;;4.40;1.40;;;22.60;56.00;;;;;;5069263;27;87093;-44
2021/10/15 12:55:46;;;;;;;3.67;1.92;;;22.60;55.30;;;;;;5019711;27;87686;-48
2021/10/15 12:58:14;;;;;;;2.95;1.40;;;22.40;56.10;;;;;;4952219;28;87918;-47
2021/10/15 13:00:52;;;;;;;3.15;1.33;;;22.40;56.30;;;;;;4988084;27;127953;-47
2021/10/15 13:03:19;;;;;;;3.28;1.30;;;22.50;56.00;;;;;;4991956;27;88310;-47
2021/10/15 13:05:47;;;;;;;2.28;0.93;;;22.50;55.90;;;;;;4992427;28;87000;-46
2021/10/15 13:08:15;;;;;;;5.40;1.27;;;22.50;55.80;;;;;;4992126;28;87208;-45
2021/10/15 13:10:46;;;;;;;4.28;1.27;;;22.50;55.80;;;;;;5008818;22;87740;-70
2021/10/15 13:13:13;;;;;;;2.97;1.35;;;22.40;55.90;;;;;;4969166;28;87690;-71
2021/10/15 13:15:40;;;;;;;3.88;1.30;;;22.30;55.80;;;;;;4971314;28;87432;-71
2021/10/15 13:18:07;;;;;;;3.55;1.63;;;22.20;55.90;;;;;;4977830;28;87680;-71
2021/10/15 13:20:34;;;;;;;5.93;1.58;;;22.10;56.20;;;;;;4959187;28;87243;-73
2021/10/15 13:23:01;;;;;;;4.22;1.27;;;22.00;56.50;;;;;;4940728;28;89407;-71
2021/10/15 13:25:28;;;;;;;3.47;1.63;;;21.90;56.50;;;;;;4975678;28;87119;-70
2021/10/15 13:27:55;;;;;;;3.78;1.10;;;21.90;56.70;;;;;;4992106;28;86896;-70
2021/10/15 13:30:22;;;;;;;1.70;0.85;;;21.90;56.70;;;;;;4991900;28;87117;-71
2021/10/15 13:32:49;;;;;;;2.80;1.13;;;21.80;56.80;;;;;;4988750;28;88064;-70
2021/10/15 13:35:16;;;;;;;3.25;1.00;;;21.80;56.90;;;;;;4996154;28;88763;-70
2021/10/15 13:37:47;;;;;;;2.58;1.10;;;21.70;56.90;;;;;;4992315;28;87316;-70
2021/10/15 13:40:18;;;;;;;3.72;0.95;;;21.70;57.80;;;;;;4975548;28;87053;-71
2021/10/15 13:50:55;;;;;;;2.17;0.90;;;21.60;57.20;;;;;;4961047;28;89340;-70
2021/10/15 13:53:22;;;;;;;3.80;1.35;;;21.60;57.20;;;;;;4988249;28;88290;-70
2021/10/15 13:58:31;;;;;;;3.05;1.50;;;21.50;57.20;;;;;;4986513;28;87245;-71
2021/10/15 14:01:04;;;;;;;3.78;1.00;;;21.50;57.30;;;;;;4967599;28;88790;-70
2021/10/15 14:06:00;;;;;;;3.15;1.15;;;21.40;57.30;;;;;;4980900;28;87272;-70
2021/10/15 14:08:28;;;;;;;4.50;1.25;;;21.40;57.30;;;;;;4957064;28;102569;-71
2021/10/15 14:10:55;;;;;;;1.83;0.95;;;21.40;57.40;;;;;;4947959;28;90347;-70
2021/10/15 14:13:22;;;;;;;3.08;1.10;;;21.40;57.40;;;;;;4942313;28;91135;-70
2021/10/15 14:15:49;;;;;;;3.10;1.48;;;21.30;57.50;;;;;;4956001;28;88693;-71
2021/10/15 14:18:16;;;;;;;4.15;1.38;;;21.30;57.40;;;;;;4967228;28;87267;-70
2021/10/15 14:20:44;;;;;;;5.75;1.35;;;21.40;57.50;;;;;;4976303;28;87982;-68
2021/10/15 14:23:11;;;;;;;1.73;1.08;;;21.50;57.00;;;;;;4973038;28;87726;-69
2021/10/15 14:25:38;;;;;;;8.32;3.25;;;21.50;57.30;;;;;;4959862;28;87601;-70
2021/10/15 14:28:05;;;;;;;5.68;1.48;;;21.50;57.40;;;;;;4959574;28;87639;-71
2021/10/15 14:30:31;;;;;;;3.20;1.40;;;21.50;57.50;;;;;;4959528;28;87135;-77
2021/10/15 14:33:00;;;;;;;4.43;1.33;;;21.50;57.50;;;;;;4958214;28;89726;-74
2021/10/15 14:35:27;;;;;;;4.25;1.67;;;21.50;57.70;;;;;;4960060;28;87728;-70
2021/10/15 14:37:54;;;;;;;4.43;1.13;;;21.40;57.60;;;;;;4978735;28;86977;-70
2021/10/15 14:40:21;;;;;;;2.65;1.20;;;21.40;57.50;;;;;;4976058;28;87776;-70
2021/10/15 14:42:48;;;;;;;5.15;1.35;;;21.40;57.70;;;;;;4938567;28;88854;-71
2021/10/15 14:45:15;;;;;;;4.50;1.50;;;21.40;57.90;;;;;;4971341;28;87582;-71
2021/10/15 14:47:42;;;;;;;4.25;1.17;;;21.40;57.70;;;;;;4968040;28;87546;-71
2021/10/15 14:50:09;;;;;;;6.60;1.40;;;21.40;57.70;;;;;;4972506;28;87318;-71
2021/10/15 14:52:36;;;;;;;3.90;0.93;;;21.40;57.70;;;;;;4971283;28;93769;-72
2021/10/15 14:55:04;;;;;;;4.53;1.23;;;21.30;57.50;;;;;;4977122;28;87464;-71
2021/10/15 14:57:31;;;;;;;3.97;1.42;;;21.30;57.50;;;;;;4976794;28;98044;-71
2021/10/15 14:59:59;;;;;;;3.08;1.10;;;21.30;57.60;;;;;;4960264;28;87503;-70
2021/10/15 15:02:26;;;;;;;2.92;1.42;;;21.30;57.80;;;;;;4981562;28;87695;-72
2021/10/15 15:04:53;;;;;;;3.38;1.23;;;21.30;57.80;;;;;;4948836;28;87335;-73
2021/10/15 15:07:20;;;;;;;3.60;1.48;;;21.30;57.80;;;;;;4968067;28;90163;-72
2021/10/15 15:09:47;;;;;;;6.47;1.27;;;21.30;58.60;;;;;;4976879;28;87041;-71
2021/10/15 15:12:14;;;;;;;3.15;1.20;;;21.30;57.80;;;;;;4978389;28;90343;-72
2021/10/15 15:14:41;;;;;;;3.70;1.48;;;21.30;57.80;;;;;;4944602;28;89904;-73
2021/10/15 15:17:08;;;;;;;2.75;1.23;;;21.20;57.70;;;;;;4959289;28;104763;-73
2021/10/15 15:19:37;;;;;;;6.47;1.08;;;21.30;57.80;;;;;;4964502;28;89501;-72
2021/10/15 15:22:04;;;;;;;3.95;1.42;;;21.20;57.80;;;;;;4978078;28;87563;-72
2021/10/15 15:24:31;;;;;;;3.47;1.20;;;21.20;57.90;;;;;;4944839;28;86978;-72
2021/10/15 15:26:58;;;;;;;2.88;1.45;;;21.20;58.10;;;;;;4978353;28;87472;-72
2021/10/15 15:29:24;;;;;;;2.25;1.20;;;21.20;58.10;;;;;;4960748;28;88267;-72
2021/10/15 15:31:51;;;;;;;3.00;1.17;;;21.20;58.10;;;;;;4977853;28;87997;-72
2021/10/15 15:34:18;;;;;;;5.07;1.60;;;21.10;58.10;;;;;;4960177;28;90124;-72
2021/10/15 15:36:46;;;;;;;4.72;1.98;;;21.10;58.20;;;;;;4980509;28;87351;-72
2021/10/15 15:39:13;;;;;;;1.70;1.00;;;21.10;58.10;;;;;;4980350;28;87030;-72
2021/10/15 15:41:40;;;;;;;3.33;1.30;;;21.10;58.20;;;;;;4979361;28;91044;-72
2021/10/15 15:44:20;;;;;;;2.67;1.10;;;21.10;58.20;;;;;;4988856;28;87975;-73
2021/10/15 15:46:55;;;;;;;2.75;0.90;;;21.10;58.20;;;;;;4968435;28;88199;-72
2021/10/15 15:49:23;;;;;;;3.38;1.20;;;21.10;58.20;;;;;;4972977;28;87257;-72
2021/10/15 15:51:49;;;;;;;5.25;1.17;;;21.10;58.20;;;;;;4986943;28;93162;-73
2021/10/15 15:54:16;;;;;;;5.30;1.55;;;21.10;58.20;;;;;;4990558;28;87095;-72
2021/10/15 15:56:43;;;;;;;2.47;1.10;;;21.00;58.20;;;;;;4985212;28;89953;-72
2021/10/15 15:59:10;;;;;;;4.20;1.35;;;21.10;58.30;;;;;;4962206;28;87847;-72
2021/10/15 16:01:38;;;;;;;3.45;1.30;;;21.00;58.20;;;;;;4976749;28;86930;-72
2021/10/15 16:04:05;;;;;;;3.58;1.20;;;21.00;58.30;;;;;;4971361;28;89479;-73
2021/10/15 16:06:32;;;;;;;3.45;1.30;;;21.00;58.30;;;;;;4977015;28;87112;-73
2021/10/15 16:08:59;;;;;;;4.43;1.30;;;21.00;58.30;;;;;;4952909;28;88750;-72
2021/10/15 16:11:26;;;;;;;4.70;0.98;;;21.00;58.30;;;;;;4978741;28;87884;-72
2021/10/15 16:13:53;;;;;;;4.32;1.02;;;21.00;58.30;;;;;;4973964;28;87179;-72
2021/10/15 16:16:20;;;;;;;4.50;1.38;;;21.00;58.40;;;;;;4977431;28;87479;-72
2021/10/15 16:18:47;;;;;;;2.75;1.00;;;21.00;58.40;;;;;;4985322;28;87154;-72
2021/10/15 16:21:14;;;;;;;2.05;0.90;;;21.00;58.30;;;;;;4977025;28;102365;-72
2021/10/15 16:23:40;;;;;;;3.28;1.08;;;21.00;59.20;;;;;;4961690;28;91691;-72
2021/10/15 16:26:07;;;;;;;4.68;1.20;;;20.90;58.40;;;;;;4958514;28;88648;-72
2021/10/15 16:28:34;;;;;;;1.75;1.08;;;21.00;58.50;;;;;;4988845;28;87188;-73
2021/10/15 16:31:01;;;;;;;3.25;1.30;;;20.90;58.40;;;;;;4966340;28;87676;-72
2021/10/15 16:33:28;;;;;;;5.00;1.65;;;20.90;58.40;;;;;;4957567;28;87409;-72
2021/10/15 16:35:55;;;;;;;2.00;0.95;;;20.90;58.30;;;;;;4993352;28;87175;-73
2021/10/15 16:38:22;;;;;;;2.47;1.30;;;20.90;58.30;;;;;;4976677;28;87419;-73
2021/10/15 16:40:49;;;;;;;2.80;1.40;;;20.90;58.30;;;;;;4977677;28;87957;-72
2021/10/15 16:43:16;;;;;;;2.60;1.50;;;20.90;58.30;;;;;;4961317;28;87402;-73
2021/10/15 16:45:43;;;;;;;2.75;1.20;;;20.90;58.40;;;;;;4960331;28;87327;-72
2021/10/15 16:48:10;;;;;;;2.10;1.00;;;20.90;58.40;;;;;;4962128;28;88576;-72
2021/10/15 16:50:37;;;;;;;3.22;1.20;;;20.90;58.40;;;;;;4958139;28;87286;-73
2021/10/15 16:53:04;;;;;;;4.18;1.40;;;20.90;58.30;;;;;;4964310;28;87241;-72
2021/10/15 16:55:31;;;;;;;3.88;1.25;;;20.80;58.30;;;;;;4945058;28;92971;-73
2021/10/15 16:57:58;;;;;;;2.92;1.38;;;20.80;58.20;;;;;;4964539;28;87012;-72
2021/10/15 17:00:25;;;;;;;2.53;1.40;;;20.90;58.70;;;;;;4961879;28;88225;-72
2021/10/15 17:02:52;;;;;;;3.50;1.80;;;20.90;58.30;;;;;;4943429;28;88816;-73
2021/10/15 17:05:19;;;;;;;3.30;1.30;;;20.80;58.20;;;;;;4941107;28;88651;-73
2021/10/15 17:07:48;;;;;;;3.83;1.60;;;20.90;58.40;;;;;;4960319;28;89275;-73
2021/10/15 17:10:15;;;;;;;1.88;1.17;;;20.80;58.30;;;;;;4946938;28;88106;-72
2021/10/15 17:12:42;;;;;;;4.00;1.48;;;20.80;58.30;;;;;;4955006;28;89379;-73
2021/10/15 17:15:09;;;;;;;3.35;1.55;;;20.80;58.30;;;;;;4959046;28;89211;-72
2021/10/15 17:17:36;;;;;;;2.33;1.20;;;20.80;58.30;;;;;;4956318;28;88293;-72
2021/10/15 17:20:04;;;;;;;4.13;1.40;;;20.80;58.30;;;;;;4965677;28;89281;-73
2021/10/15 17:22:31;;;;;;;2.85;1.48;;;20.80;58.40;;;;;;4959149;28;89736;-72
2021/10/15 17:24:58;;;;;;;4.07;1.55;;;20.80;58.40;;;;;;4949651;28;88412;-73
2021/10/15 17:27:25;;;;;;;3.05;1.73;;;20.80;58.40;;;;;;4953050;28;89625;-73
2021/10/15 17:29:52;;;;;;;2.72;1.13;;;20.80;58.40;;;;;;4961518;28;87708;-73
2021/10/15 17:32:19;;;;;;;2.65;1.08;;;20.80;58.40;;;;;;4946381;28;88523;-73
2021/10/15 17:34:46;;;;;;;3.35;1.40;;;20.80;58.40;;;;;;4973086;28;88466;-73
2021/10/15 17:37:13;;;;;;;3.42;1.13;;;20.80;58.40;;;;;;4983847;28;89177;-72
2021/10/15 17:39:40;;;;;;;2.83;1.13;;;20.80;58.40;;;;;;4962560;28;88131;-73
2021/10/15 17:42:07;;;;;;;3.03;1.50;;;20.80;58.40;;;;;;4962561;28;88632;-73
2021/10/15 17:44:34;;;;;;;2.28;1.95;;;20.80;58.40;;;;;;4955905;28;88423;-73
2021/10/15 17:47:02;;;;;;;4.28;1.58;;;20.80;58.40;;;;;;4957058;28;88109;-73
2021/10/15 17:49:30;;;;;;;3.08;1.55;;;20.70;58.40;;;;;;4981347;28;90775;-73
2021/10/15 17:52:00;;;;;;;3.15;1.25;;;21.00;58.00;;;;;;4970617;28;94397;-70
2021/10/15 17:54:27;;;;;;;4.40;1.50;;;21.10;57.60;;;;;;4960146;28;88698;-70
2021/10/15 17:56:54;;;;;;;2.78;1.45;;;21.00;58.00;;;;;;4960186;28;95904;-70
2021/10/15 17:59:21;;;;;;;1.85;1.23;;;20.90;58.20;;;;;;4976267;28;88184;-70
2021/10/15 18:01:48;;;;;;;3.33;1.42;;;20.90;58.40;;;;;;4981257;28;89706;-70
2021/10/15 18:04:15;;;;;;;2.70;1.52;;;20.90;58.50;;;;;;4964941;28;92351;-71
2021/10/15 18:06:42;;;;;;;5.35;1.65;;;20.80;58.60;;;;;;4965113;28;88440;-71
2021/10/15 18:09:09;;;;;;;2.00;1.02;;;20.80;58.60;;;;;;4977530;28;88596;-70
2021/10/15 18:11:36;;;;;;;3.45;1.17;;;20.80;58.70;;;;;;4941448;28;88767;-70
2021/10/15 18:14:03;;;;;;;3.10;1.30;;;20.80;58.60;;;;;;4985258;28;88566;-71
2021/10/15 18:16:32;;;;;;;3.97;1.60;;;20.90;58.60;;;;;;4966592;28;88266;-71
2021/10/15 18:18:59;;;;;;;3.03;1.52;;;20.80;58.60;;;;;;4988966;28;88479;-71
2021/10/15 18:21:26;;;;;;;2.65;1.52;;;20.80;58.60;;;;;;4972129;28;91307;-71
2021/10/15 18:23:53;;;;;;;3.08;1.30;;;20.80;58.70;;;;;;4979223;28;89287;-70
2021/10/15 18:26:20;;;;;;;2.03;1.05;;;20.80;58.70;;;;;;4979526;28;89337;-70
2021/10/15 18:28:47;;;;;;;3.85;1.58;;;20.80;58.80;;;;;;4982728;28;90047;-70
2021/10/15 18:31:14;;;;;;;3.28;1.40;;;20.80;58.70;;;;;;4979784;28;88811;-71
2021/10/15 18:33:41;;;;;;;3.10;1.45;;;20.80;58.70;;;;;;4962809;28;89695;-70
2021/10/15 18:36:08;;;;;;;2.17;1.10;;;20.80;58.70;;;;;;4975934;28;89620;-70
2021/10/15 18:38:37;;;;;;;2.97;1.60;;;20.80;58.70;;;;;;4958008;28;89642;-70
2021/10/15 18:41:24;;;;;;;3.63;1.60;;;20.70;58.70;;;;;;4943861;28;91818;-70
2021/10/15 18:43:52;;;;;;;2.25;1.17;;;20.70;58.70;;;;;;4940422;28;88471;-70
2021/10/15 18:46:18;;;;;;;3.53;1.40;;;20.80;58.80;;;;;;4955650;28;88343;-70
2021/10/15 18:48:45;;;;;;;3.75;1.70;;;20.80;58.80;;;;;;4977032;28;88866;-70
2021/10/15 18:51:12;;;;;;;2.63;1.33;;;20.80;58.80;;;;;;4940733;28;89944;-70
2021/10/15 18:53:39;;;;;;;2.00;1.30;;;20.70;59.40;;;;;;4941716;28;89600;-70
2021/10/15 18:56:07;;;;;;;3.03;1.55;;;20.70;58.70;;;;;;4925638;28;89260;-70
2021/10/15 18:58:34;;;;;;;3.25;1.65;;;20.80;58.80;;;;;;4960049;28;88084;-70
2021/10/15 19:01:01;;;;;;;3.22;1.52;;;20.70;58.70;;;;;;4958628;28;88815;-70
2021/10/15 19:03:28;;;;;;;2.58;1.40;;;20.70;58.70;;;;;;4951405;28;88211;-70
2021/10/15 19:05:55;;;;;;;2.80;1.25;;;20.70;58.80;;;;;;4923085;28;95019;-68
2021/10/15 19:08:25;;;;;;;2.58;1.20;;;20.70;58.80;;;;;;4943302;28;87515;-70
2021/10/15 19:10:54;;;;;;;2.80;1.42;;;20.70;58.80;;;;;;4976606;28;88590;-70
2021/10/15 19:13:28;;;;;;;3.60;1.20;;;20.70;58.80;;;;;;4972386;28;91414;-70
2021/10/15 19:15:56;;;;;;;2.75;1.55;;;20.70;58.80;;;;;;4954989;28;96276;-70
2021/10/15 19:18:23;;;;;;;2.00;1.48;;;20.70;58.80;;;;;;4958960;28;87911;-71
2021/10/15 19:20:50;;;;;;;2.85;1.98;;;20.70;58.80;;;;;;4949852;28;91469;-70
2021/10/15 19:23:20;;;;;;;2.45;1.23;;;20.70;58.80;;;;;;4940473;28;91348;-70
2021/10/15 19:25:48;;;;;;;1.75;1.08;;;20.70;58.80;;;;;;4918996;28;89494;-66
2021/10/15 19:28:16;;;;;;;2.38;1.25;;;20.70;58.90;;;;;;4956344;28;88035;-70
2021/10/15 19:30:48;;;;;;;4.22;1.90;;;20.70;58.90;;;;;;4975826;28;88430;-70
2021/10/15 19:33:15;;;;;;;4.03;1.30;;;20.60;58.90;;;;;;4975060;28;90858;-71
2021/10/15 19:35:43;;;;;;;3.10;1.45;;;20.70;58.90;;;;;;4926524;28;89160;-70
2021/10/15 19:38:10;;;;;;;2.20;1.40;;;20.70;58.90;;;;;;4957972;28;87974;-70
2021/10/15 19:40:40;;;;;;;2.83;1.27;;;20.70;58.90;;;;;;4957636;28;91643;-71
2021/10/15 19:43:07;;;;;;;3.92;1.05;;;20.70;59.00;;;;;;4958642;28;89105;-71
2021/10/15 19:45:34;;;;;;;2.67;1.38;;;20.60;59.00;;;;;;4975761;28;87898;-70
2021/10/15 19:48:01;;;;;;;4.28;1.60;;;20.60;59.00;;;;;;4974765;28;88140;-70
2021/10/15 19:50:28;;;;;;;2.65;1.65;;;20.60;59.00;;;;;;4974826;28;88608;-70
2021/10/15 19:52:55;;;;;;;3.38;1.73;;;20.60;59.00;;;;;;4974802;28;88291;-70
2021/10/15 19:55:22;;;;;;;3.05;1.38;;;20.60;59.00;;;;;;4938769;28;89257;-70
2021/10/15 19:57:49;;;;;;;2.70;1.60;;;20.60;59.10;;;;;;4956408;28;88731;-70
2021/10/15 20:00:16;;;;;;;3.90;1.40;;;20.60;59.10;;;;;;4970844;28;91207;-70
2021/10/15 20:02:43;;;;;;;2.03;1.20;;;20.60;59.10;;;;;;4972412;28;88311;-70
2021/10/15 20:05:11;;;;;;;2.67;1.33;;;20.60;59.20;;;;;;4955135;28;89997;-70
2021/10/15 20:07:38;;;;;;;2.50;1.20;;;20.60;59.20;;;;;;4973745;28;90327;-71
2021/10/15 20:10:05;;;;;;;2.70;1.52;;;20.60;59.20;;;;;;4955646;28;88023;-70
2021/10/15 20:12:32;;;;;;;2.30;1.50;;;20.60;59.20;;;;;;4974287;28;87994;-70
2021/10/15 20:14:59;;;;;;;2.88;1.33;;;20.60;59.30;;;;;;4940859;28;89952;-70
2021/10/15 20:17:27;;;;;;;1.73;1.30;;;20.60;59.30;;;;;;4924108;28;90208;-70
2021/10/15 20:19:54;;;;;;;3.85;1.23;;;20.60;59.30;;;;;;4973891;28;89967;-69
2021/10/15 20:22:21;;;;;;;2.92;1.23;;;20.60;59.30;;;;;;4942324;28;91029;-70
2021/10/15 20:24:48;;;;;;;4.05;1.30;;;20.60;59.40;;;;;;4962920;28;88315;-70
2021/10/15 20:27:15;;;;;;;2.72;1.38;;;20.60;59.40;;;;;;4971038;28;88292;-69
2021/10/15 20:29:45;;;;;;;1.98;1.00;;;20.60;59.40;;;;;;4972016;28;89338;-70
2021/10/15 20:32:12;;;;;;;2.38;1.10;;;20.60;59.40;;;;;;4952768;28;92257;-71
2021/10/15 20:34:39;;;;;;;3.15;1.90;;;20.60;59.50;;;;;;4958642;28;88879;-71
2021/10/15 20:37:08;;;;;;;2.15;1.25;;;20.60;59.50;;;;;;4958210;28;89311;-75
2021/10/15 20:39:35;;;;;;;2.60;1.50;;;20.60;59.60;;;;;;4957095;28;89564;-70
2021/10/15 20:42:03;;;;;;;2.50;1.10;;;20.60;59.70;;;;;;4977074;28;88277;-71
2021/10/15 20:44:30;;;;;;;2.63;1.63;;;20.50;59.70;;;;;;4975807;28;88140;-70
2021/10/15 20:46:57;;;;;;;1.67;1.00;;;20.50;59.70;;;;;;4973449;28;88015;-71
2021/10/15 20:49:24;;;;;;;3.45;1.40;;;20.50;59.80;;;;;;4973201;28;89619;-71
2021/10/15 20:51:51;;;;;;;2.72;1.13;;;20.50;59.80;;;;;;4974251;28;88244;-71
2021/10/15 20:54:18;;;;;;;2.85;1.10;;;20.60;59.90;;;;;;4971730;28;89405;-71
2021/10/15 20:56:46;;;;;;;3.88;1.10;;;20.50;59.80;;;;;;4957829;28;90379;-71
2021/10/15 20:59:13;;;;;;;2.75;1.38;;;20.50;59.90;;;;;;4972369;28;88818;-71
2021/10/15 21:01:40;;;;;;;2.42;1.25;;;20.50;59.90;;;;;;4956992;28;90388;-71
2021/10/15 21:04:07;;;;;;;2.92;1.65;;;20.50;60.00;;;;;;4974101;28;87994;-71
2021/10/15 21:06:34;;;;;;;2.20;1.30;;;20.50;60.00;;;;;;4974294;28;88193;-70
2021/10/15 21:09:01;;;;;;;4.03;1.40;;;20.50;60.10;;;;;;4975660;28;89107;-71
2021/10/15 21:11:30;;;;;;;3.83;1.27;;;20.50;60.10;;;;;;4956910;28;88356;-70
2021/10/15 21:13:57;;;;;;;1.75;1.15;;;20.50;60.10;;;;;;4973727;28;88255;-71
2021/10/15 21:16:24;;;;;;;1.40;1.10;;;20.50;60.20;;;;;;4959041;28;89592;-70
2021/10/15 21:18:51;;;;;;;1.70;1.10;;;20.50;60.20;;;;;;4977241;28;88634;-70
2021/10/15 21:21:18;;;;;;;2.22;1.27;;;20.50;60.30;;;;;;4974877;28;88973;-70
2021/10/15 21:23:46;;;;;;;1.83;1.33;;;20.50;60.30;;;;;;4975418;28;89007;-70
2021/10/15 21:26:13;;;;;;;1.70;1.02;;;20.50;60.30;;;;;;4960012;28;88149;-70
2021/10/15 21:28:40;;;;;;;3.08;1.25;;;20.50;60.30;;;;;;4974846;28;88542;-70
2021/10/15 21:31:08;;;;;;;1.88;1.30;;;20.50;60.30;;;;;;4978445;28;88514;-70
2021/10/15 21:33:35;;;;;;;2.40;1.10;;;20.50;60.40;;;;;;4978012;28;87859;-70
2021/10/15 21:36:03;;;;;;;3.22;1.10;;;20.50;60.40;;;;;;4977900;28;87896;-71
2021/10/15 21:38:31;;;;;;;1.70;1.23;;;20.50;60.40;;;;;;4978059;28;88282;-70
2021/10/15 21:40:58;;;;;;;2.55;1.10;;;20.50;60.40;;;;;;4960440;28;88350;-70
2021/10/15 21:43:25;;;;;;;1.67;0.98;;;20.50;60.50;;;;;;4976131;28;89601;-70
2021/10/15 21:45:52;;;;;;;1.52;1.08;;;20.50;60.50;;;;;;4977692;28;87814;-70
2021/10/15 21:48:19;;;;;;;2.83;1.17;;;20.40;60.40;;;;;;4976522;28;88967;-71
2021/10/15 21:50:48;;;;;;;1.23;0.98;;;20.40;60.40;;;;;;4978824;28;87844;-70
2021/10/15 21:53:15;;;;;;;1.75;1.02;;;20.50;60.50;;;;;;4975567;28;88136;-70
2021/10/15 21:55:42;;;;;;;2.97;1.30;;;20.50;60.50;;;;;;4942070;28;87883;-70
2021/10/15 21:58:09;;;;;;;2.33;1.13;;;20.50;60.50;;;;;;4971897;28;89025;-69
2021/10/15 22:00:36;;;;;;;1.98;1.27;;;20.50;60.60;;;;;;4977395;28;87510;-69
2021/10/15 22:03:05;;;;;;;1.63;1.00;;;20.40;60.50;;;;;;4977796;28;88215;-70
2021/10/15 22:05:33;;;;;;;2.75;1.15;;;20.40;60.50;;;;;;4977993;28;88035;-70
2021/10/15 22:08:00;;;;;;;1.50;1.05;;;20.40;60.50;;;;;;4975462;28;89536;-69
2021/10/15 22:10:27;;;;;;;2.28;1.10;;;20.40;60.50;;;;;;4959015;28;91935;-69
2021/10/15 22:12:54;;;;;;;2.78;1.27;;;20.40;60.60;;;;;;4978337;28;88048;-69
2021/10/15 22:15:22;;;;;;;2.05;1.00;;;20.40;60.70;;;;;;4977736;28;87862;-70
2021/10/15 22:17:49;;;;;;;2.17;1.10;;;20.40;60.70;;;;;;4977850;28;89043;-69
2021/10/15 22:20:18;;;;;;;2.38;1.00;;;20.40;61.30;;;;;;4959884;28;88171;-70
2021/10/15 22:22:46;;;;;;;1.63;1.05;;;20.40;60.80;;;;;;4975605;28;88075;-69
2021/10/15 22:25:13;;;;;;;2.08;0.98;;;20.40;60.80;;;;;;4975506;28;90528;-70
2021/10/15 22:27:48;;;;;;;2.05;0.95;;;20.40;60.80;;;;;;4956851;28;88670;-69
2021/10/15 22:30:17;;;;;;;2.10;1.40;;;20.40;60.90;;;;;;4969064;28;88261;-70
2021/10/15 22:32:45;;;;;;;1.67;1.15;;;20.40;60.90;;;;;;4957293;28;88717;-69
2021/10/15 22:35:11;;;;;;;1.83;0.98;;;20.40;60.90;;;;;;4969631;28;87822;-70
2021/10/15 22:37:38;;;;;;;2.53;1.13;;;20.40;61.00;;;;;;4961904;28;88234;-69
2021/10/15 22:40:06;;;;;;;1.52;1.10;;;20.40;61.00;;;;;;4959430;28;88360;-70
2021/10/15 22:42:35;;;;;;;2.25;1.02;;;20.40;61.10;;;;;;4959869;28;88025;-70
2021/10/15 22:45:05;;;;;;;2.60;1.08;;;20.40;61.10;;;;;;4952288;28;88315;-69
2021/10/15 22:47:32;;;;;;;1.50;1.33;;;20.40;61.10;;;;;;4974069;28;88536;-69
2021/10/15 22:49:58;;;;;;;1.73;1.00;;;20.40;61.10;;;;;;4977617;28;88183;-70
2021/10/15 22:52:25;;;;;;;1.73;1.00;;;20.40;61.20;;;;;;4942728;28;89436;-69
2021/10/15 22:54:52;;;;;;;1.33;1.13;;;20.40;61.20;;;;;;4974636;28;88669;-70
2021/10/15 22:57:20;;;;;;;1.95;1.25;;;20.40;61.30;;;;;;4959535;28;89170;-69
2021/10/15 22:59:49;;;;;;;1.77;1.08;;;20.30;61.20;;;;;;4942542;28;88913;-70
2021/10/15 23:02:17;;;;;;;1.00;0.90;;;20.40;61.30;;;;;;4977262;28;88997;-69
2021/10/15 23:04:44;;;;;;;1.00;0.88;;;20.30;61.30;;;;;;4975066;28;90645;-69
2021/10/15 23:07:12;;;;;;;1.80;1.20;;;20.40;61.40;;;;;;4976730;28;88509;-69
2021/10/15 23:09:40;;;;;;;1.58;1.35;;;20.40;61.40;;;;;;4976786;28;87974;-70
2021/10/15 23:12:07;;;;;;;1.92;1.00;;;20.40;61.40;;;;;;4975535;28;88061;-70
2021/10/15 23:14:34;;;;;;;1.73;1.00;;;20.30;61.40;;;;;;4959617;28;88988;-70
2021/10/15 23:17:01;;;;;;;1.23;1.02;;;20.40;61.50;;;;;;4974678;28;88638;-70
2021/10/15 23:19:29;;;;;;;1.80;0.90;;;20.40;61.50;;;;;;4976434;28;88854;-70
2021/10/15 23:21:58;;;;;;;1.98;0.90;;;20.30;61.50;;;;;;4974764;28;88966;-69
2021/10/15 23:24:28;;;;;;;2.10;1.08;;;20.40;61.60;;;;;;4975137;28;88281;-70
2021/10/15 23:26:55;;;;;;;1.45;0.90;;;20.30;61.60;;;;;;4973986;28;88576;-70
2021/10/15 23:29:22;;;;;;;1.55;1.20;;;20.40;61.60;;;;;;4973751;28;88358;-70
2021/10/15 23:31:50;;;;;;;1.52;1.13;;;20.30;61.60;;;;;;4956445;28;88051;-69
2021/10/15 23:34:17;;;;;;;1.05;0.88;;;20.30;61.60;;;;;;4976307;28;88271;-69
2021/10/15 23:36:44;;;;;;;1.15;1.00;;;20.30;61.70;;;;;;4974323;28;88786;-70
2021/10/15 23:39:11;;;;;;;0.93;0.80;;;20.40;61.80;;;;;;4976294;28;88426;-69
2021/10/15 23:41:38;;;;;;;2.00;1.15;;;20.30;61.80;;;;;;4976357;28;87881;-69
2021/10/15 23:44:05;;;;;;;2.10;1.02;;;20.30;61.80;;;;;;4976798;28;88102;-69
2021/10/15 23:46:34;;;;;;;1.10;0.90;;;20.30;61.80;;;;;;4973702;28;89493;-70
2021/10/15 23:49:03;;;;;;;1.13;1.00;;;20.30;61.80;;;;;;4957749;28;89620;-70
2021/10/15 23:51:31;;;;;;;1.25;0.85;;;20.30;61.80;;;;;;4959056;28;88024;-70
2021/10/15 23:53:58;;;;;;;1.30;0.90;;;20.30;61.90;;;;;;4976867;28;87947;-69
2021/10/15 23:56:25;;;;;;;2.15;1.23;;;20.30;61.90;;;;;;4975566;28;88279;-70
2021/10/15 23:58:52;;;;;;;1.55;1.00;;;20.30;61.90;;;;;;4925920;28;88205;-70
